CheckWX is a tool to help pilots better visualize weather data.  It is not intended as a substitute for an official pre-flight weather briefing.

06:07:48 UTC

KRZT METAR
Ross County Airport
Chillicothe, Ohio, USA
Current

13 mins ago

KRZT 230555Z AUTO 00000KT 10SM CLR 14/07 A3006 RMK AO2
Observed
Apr-23 @ 05:55 UTC
Visibility
10 SM
Flight Rules
VFR
Cloud Levels
  • Clear skies
Temperature
14°C / 57°F
Dewpoint
C / 45°F
Humidity
63%
Altimeter
30.06" Hg
Pressure
1017.92 hPa
Previous

33 mins ago

KRZT 230535Z AUTO 00000KT 10SM CLR 14/07 A3006 RMK AO2 LTG DSNT NW
Observed
Apr-23 @ 05:35 UTC
Visibility
10 SM
Flight Rules
VFR
Cloud Levels
  • Clear skies
Temperature
14°C / 57°F
Dewpoint
C / 45°F
Humidity
63%
Altimeter
30.06" Hg
Pressure
1017.92 hPa
Previous

53 mins ago

KRZT 230515Z AUTO 00000KT 10SM CLR 13/08 A3006 RMK AO2
Observed
Apr-23 @ 05:15 UTC
Visibility
10 SM
Flight Rules
VFR
Cloud Levels
  • Clear skies
Temperature
13°C / 55°F
Dewpoint
C / 46°F
Humidity
72%
Altimeter
30.06" Hg
Pressure
1017.92 hPa